createdAt,value
2022-09-13T00:01:24.978Z,17.8
2022-09-13T00:06:32.447Z,17.8
2022-09-13T00:12:23.005Z,17.8
2022-09-13T00:16:47.307Z,17.8
2022-09-13T00:22:13.498Z,17.8
2022-09-13T00:26:59.837Z,17.8
2022-09-13T00:32:06.314Z,17.8
2022-09-13T00:37:12.694Z,17.8
2022-09-13T00:47:25.505Z,17.8
2022-09-13T00:52:31.979Z,17.8
2022-09-13T00:57:38.394Z,17.8
2022-09-13T01:03:04.782Z,17.9
2022-09-13T01:07:51.132Z,17.9
2022-09-13T01:12:57.626Z,17.8
2022-09-13T01:18:03.901Z,17.8
2022-09-13T01:23:10.281Z,17.8
2022-09-13T01:28:40.772Z,17.8
2022-09-13T01:33:23.079Z,17.8
2022-09-13T01:38:29.534Z,17.8
2022-09-13T01:43:25.893Z,17.8
2022-09-13T01:48:42.691Z,17.8
2022-09-13T01:58:55.893Z,17.8
2022-09-13T02:04:02.220Z,17.8
2022-09-13T02:09:07.581Z,17.8
2022-09-13T02:14:15.032Z,17.8
2022-09-13T02:19:45.582Z,17.8
2022-09-13T02:24:27.992Z,17.7
2022-09-13T02:29:34.369Z,17.7
2022-09-13T02:34:40.753Z,17.7
2022-09-13T02:39:47.293Z,17.7
2022-09-13T02:44:52.500Z,17.7
2022-09-13T02:49:59.889Z,17.7
2022-09-13T03:00:12.652Z,17.6
2022-09-13T03:05:19.153Z,17.6
2022-09-13T03:10:25.547Z,17.6
2022-09-13T03:15:32.030Z,17.5
2022-09-13T03:20:42.425Z,17.5
2022-09-13T03:25:44.880Z,17.5
2022-09-13T03:30:55.177Z,17.5
2022-09-13T03:36:21.594Z,17.4
2022-09-13T03:41:05.838Z,17.4
2022-09-13T03:46:12.292Z,17.4
2022-09-13T03:51:38.672Z,17.4
2022-09-13T03:56:25.134Z,17.3
2022-09-13T04:01:35.501Z,17.3
2022-09-13T04:06:37.874Z,17.3
2022-09-13T04:18:23.440Z,17.3
2022-09-13T04:28:41.129Z,17.3
2022-09-13T04:33:43.618Z,17.3
2022-09-13T04:38:49.992Z,17.3
2022-09-13T04:49:01.965Z,17.2
2022-09-13T04:54:14.975Z,17.2
2022-09-13T04:59:40.948Z,17.2
2022-09-13T05:04:13.287Z,17.2
2022-09-13T05:09:19.663Z,17.2
2022-09-13T05:14:36.072Z,17.2
2022-09-13T05:19:42.614Z,17.2
2022-09-13T05:25:08.894Z,17.2
2022-09-13T05:29:55.319Z,17.2
2022-09-13T05:35:01.717Z,17.1
2022-09-13T05:40:11.590Z,17.1
2022-09-13T05:45:34.608Z,17.1
2022-09-13T05:50:19.130Z,17.1
2022-09-13T05:55:27.350Z,17.1
2022-09-13T06:00:37.719Z,17.1
2022-09-13T06:05:31.962Z,17.1
2022-09-13T06:10:36.479Z,17.2
2022-09-13T06:19:00.254Z,17.2
2022-09-13T06:20:59.398Z,17.3
2022-09-13T06:26:05.690Z,17.3
2022-09-13T06:31:12.127Z,17.3
2022-09-13T06:36:18.482Z,17.4
2022-09-13T06:41:14.979Z,17.4
2022-09-13T06:46:24.952Z,17.5
2022-09-13T06:51:27.834Z,17.5
2022-09-13T06:56:44.140Z,17.6
2022-09-13T07:06:46.924Z,17.7
2022-09-13T07:12:10.867Z,17.8
2022-09-13T07:17:13.314Z,17.9
2022-09-13T07:27:26.199Z,18.0
2022-09-13T07:32:22.464Z,18.0
2022-09-13T07:37:37.962Z,18.1
2022-09-13T07:42:45.492Z,18.2
2022-09-13T07:47:41.893Z,18.2
2022-09-13T07:53:02.317Z,18.3
2022-09-13T07:58:04.736Z,18.3
2022-09-13T08:03:11.106Z,18.4
2022-09-13T08:08:22.113Z,18.5
2022-09-13T08:13:24.597Z,18.5
2022-09-13T08:18:30.957Z,18.6
2022-09-13T08:23:41.342Z,18.7
2022-09-13T08:28:45.326Z,18.8
2022-09-13T08:33:51.975Z,18.9
2022-09-13T08:38:59.646Z,18.9
2022-09-13T08:44:06.239Z,19.0
2022-09-13T08:49:16.708Z,19.1
2022-09-13T08:54:22.904Z,19.2
2022-09-13T08:59:26.886Z,19.3
2022-09-13T09:04:41.245Z,19.4
2022-09-13T09:09:43.638Z,19.5
2022-09-13T09:14:36.095Z,19.6
2022-09-13T09:20:18.156Z,19.7
2022-09-13T09:25:00.433Z,19.9
2022-09-13T09:30:10.835Z,20.0
2022-09-13T09:35:13.173Z,20.1
2022-09-13T09:40:21.180Z,20.3
2022-09-13T09:45:27.704Z,20.3
2022-09-13T09:50:38.008Z,20.5
2022-09-13T09:55:30.363Z,20.7
2022-09-13T10:00:46.793Z,20.9
2022-09-13T10:05:57.164Z,21.1
2022-09-13T10:10:59.618Z,21.6
2022-09-13T10:16:10.018Z,22.0
2022-09-13T10:21:12.376Z,22.7
2022-09-13T10:26:18.789Z,23.4
2022-09-13T10:31:28.935Z,24.2
2022-09-13T10:36:51.545Z,25.0
2022-09-13T10:41:45.178Z,25.6
2022-09-13T10:46:55.743Z,26.2
2022-09-13T10:52:05.849Z,26.7
2022-09-13T10:57:12.265Z,27.1
2022-09-13T11:03:31.098Z,27.2
2022-09-13T11:07:25.356Z,27.2
2022-09-13T11:12:34.798Z,27.1
2022-09-13T11:17:42.273Z,26.9
2022-09-13T11:22:48.709Z,26.6
2022-09-13T11:27:55.126Z,26.4
2022-09-13T11:33:01.551Z,26.2
2022-09-13T11:38:07.951Z,25.9
2022-09-13T11:43:14.389Z,25.7
2022-09-13T11:48:10.750Z,25.5
2022-09-13T11:53:30.057Z,25.4
2022-09-13T11:58:33.522Z,25.5
2022-09-13T12:03:39.892Z,25.6
2022-09-13T12:08:46.371Z,25.9
2022-09-13T12:13:52.628Z,26.5
2022-09-13T12:18:59.009Z,27.0
2022-09-13T12:24:05.405Z,27.5
2022-09-13T12:29:11.759Z,27.9
2022-09-13T12:34:18.142Z,28.0
2022-09-13T12:39:24.639Z,28.1
2022-09-13T12:44:33.686Z,28.2
2022-09-13T12:49:37.351Z,28.3
2022-09-13T12:54:43.750Z,28.4
2022-09-13T12:59:50.110Z,28.4
2022-09-13T13:04:56.482Z,28.6
2022-09-13T13:10:02.959Z,28.8
2022-09-13T13:15:50.381Z,29.4
2022-09-13T13:20:56.849Z,29.5
2022-09-13T13:25:53.234Z,29.9
2022-09-13T13:31:13.657Z,30.2
2022-09-13T13:36:06.090Z,30.4
2022-09-13T13:41:22.604Z,30.4
2022-09-13T13:46:43.006Z,30.4
2022-09-13T13:51:56.997Z,30.3
2022-09-13T13:57:34.562Z,30.2
2022-09-13T14:12:07.602Z,30.0
2022-09-13T14:12:25.641Z,30.1
2022-09-13T14:17:17.920Z,30.0
2022-09-13T14:22:22.700Z,30.1
2022-09-13T14:27:30.139Z,30.2
2022-09-13T14:32:41.687Z,30.2
2022-09-13T14:37:32.960Z,30.1
2022-09-13T14:42:39.331Z,30.1
2022-09-13T14:47:55.801Z,30.0
2022-09-13T14:52:52.130Z,29.9
2022-09-13T14:58:08.663Z,29.7
2022-09-13T15:03:05.031Z,29.4
2022-09-13T15:08:25.369Z,29.2
2022-09-13T15:19:20.976Z,28.5
2022-09-13T15:24:28.337Z,28.5
2022-09-13T15:29:34.774Z,28.2
2022-09-13T15:34:41.128Z,28.0
2022-09-13T15:45:42.083Z,27.3
2022-09-13T15:51:13.537Z,27.3
2022-09-13T16:02:17.638Z,26.9
2022-09-13T16:03:05.684Z,26.9
2022-09-13T16:07:30.605Z,26.8
2022-09-13T16:12:34.106Z,26.6
2022-09-13T16:18:24.978Z,26.2
2022-09-13T16:25:59.553Z,26.0
2022-09-13T16:32:49.374Z,25.8
2022-09-13T16:42:51.599Z,25.7
2022-09-13T16:46:58.542Z,25.5
2022-09-13T17:02:38.377Z,25.1
2022-09-13T17:08:45.725Z,25.1
2022-09-13T17:12:51.979Z,25.0
2022-09-13T17:17:58.461Z,24.7
2022-09-13T17:23:49.038Z,24.1
2022-09-13T17:28:52.999Z,24.1
2022-09-13T17:33:59.403Z,23.9
2022-09-13T17:39:05.850Z,23.7
2022-09-13T17:44:12.255Z,23.5
2022-09-13T17:49:18.676Z,23.3
2022-09-13T17:55:12.205Z,22.8
2022-09-13T18:00:15.971Z,22.8
2022-09-13T18:10:49.230Z,22.5
2022-09-13T18:15:35.197Z,22.3
2022-09-13T18:21:05.603Z,22.1
2022-09-13T18:25:47.933Z,21.9
2022-09-13T18:30:54.323Z,21.8
2022-09-13T18:36:00.686Z,21.6
2022-09-13T18:42:16.311Z,21.3
2022-09-13T18:47:23.694Z,21.3
2022-09-13T18:52:30.072Z,21.2
2022-09-13T18:57:36.452Z,21.1
2022-09-13T19:03:02.014Z,21.0
2022-09-13T19:07:49.454Z,20.8
2022-09-13T19:12:55.978Z,20.7
2022-09-13T19:18:02.466Z,20.6
2022-09-13T19:22:58.882Z,20.5
2022-09-13T19:28:19.466Z,20.3
2022-09-13T19:33:22.509Z,20.2
2022-09-13T19:38:29.019Z,20.1
2022-09-13T19:43:35.505Z,20.0
2022-09-13T19:48:38.818Z,19.9
2022-09-13T19:53:55.808Z,19.8
2022-09-13T19:59:14.839Z,19.8
2022-09-13T20:04:01.159Z,19.6
2022-09-13T20:09:07.562Z,19.6
2022-09-13T20:14:14.063Z,19.4
2022-09-13T20:19:36.473Z,19.4
2022-09-13T20:25:06.297Z,19.1
2022-09-13T20:31:03.913Z,19.1
2022-09-13T20:37:42.659Z,19.1
2022-09-13T20:40:31.754Z,19.0
2022-09-13T20:46:49.308Z,18.9
2022-09-13T20:51:07.685Z,18.8
2022-09-13T20:56:18.178Z,18.7
2022-09-13T21:01:44.621Z,18.6
2022-09-13T21:06:10.828Z,18.5
2022-09-13T21:12:13.474Z,18.4
2022-09-13T21:22:11.544Z,18.3
2022-09-13T21:26:57.311Z,18.1
2022-09-13T21:44:45.061Z,17.8
2022-09-13T21:47:03.035Z,17.9
2022-09-13T21:52:06.416Z,17.7
2022-09-13T22:07:33.973Z,17.4
2022-09-13T22:17:47.657Z,17.2
2022-09-13T22:22:13.208Z,17.3
2022-09-13T22:22:53.241Z,17.2
2022-09-13T22:26:19.610Z,17.6
2022-09-13T22:29:12.779Z,17.1
2022-09-13T22:43:23.210Z,16.9
2022-09-13T22:44:13.335Z,16.9
2022-09-13T22:49:21.709Z,16.8
2022-09-13T23:03:59.078Z,16.6
2022-09-13T23:09:02.385Z,16.5
2022-09-13T23:14:28.847Z,16.5
2022-09-13T23:24:41.726Z,16.3
2022-09-13T23:35:34.761Z,16.2
2022-09-13T23:40:21.134Z,16.1
2022-09-13T23:45:27.696Z,16.1
2022-09-13T23:50:57.953Z,16.0
2022-09-13T23:55:40.437Z,15.9
